sensor_id;sensor_type;location;lat;lon;timestamp;pressure;altitude;pressure_sealevel;temperature;humidity
6134;BME280;3098;42.678;23.364;2023-09-30T00:00:13;95361.09;;;16.64;100.00
6134;BME280;3098;42.678;23.364;2023-09-30T00:02:40;95323.78;;;16.23;100.00
6134;BME280;3098;42.678;23.364;2023-09-30T00:05:10;95332.28;;;16.37;100.00
6134;BME280;3098;42.678;23.364;2023-09-30T00:07:37;95331.94;;;16.39;100.00
6134;BME280;3098;42.678;23.364;2023-09-30T00:10:04;95356.66;;;16.24;100.00
6134;BME280;3098;42.678;23.364;2023-09-30T00:12:32;95354.34;;;16.34;100.00
6134;BME280;3098;42.678;23.364;2023-09-30T00:14:59;95331.44;;;16.13;100.00
6134;BME280;3098;42.678;23.364;2023-09-30T00:17:26;95345.19;;;16.23;100.00
6134;BME280;3098;42.678;23.364;2023-09-30T00:19:53;95359.72;;;16.34;100.00
6134;BME280;3098;42.678;23.364;2023-09-30T00:22:22;95304.97;;;15.87;100.00
6134;BME280;3098;42.678;23.364;2023-09-30T00:24:49;95351.22;;;16.20;100.00
6134;BME280;3098;42.678;23.364;2023-09-30T00:27:16;95316.22;;;15.92;100.00
6134;BME280;3098;42.678;23.364;2023-09-30T00:29:43;95290.13;;;15.89;100.00
6134;BME280;3098;42.678;23.364;2023-09-30T00:32:10;95338.72;;;16.24;100.00
6134;BME280;3098;42.678;23.364;2023-09-30T00:34:38;95349.22;;;16.41;100.00
6134;BME280;3098;42.678;23.364;2023-09-30T00:37:06;95343.75;;;16.38;100.00
6134;BME280;3098;42.678;23.364;2023-09-30T00:39:34;95348.09;;;16.30;100.00
6134;BME280;3098;42.678;23.364;2023-09-30T00:42:02;95351.47;;;16.39;100.00
6134;BME280;3098;42.678;23.364;2023-09-30T00:44:30;95343.41;;;16.27;100.00
6134;BME280;3098;42.678;23.364;2023-09-30T00:46:59;95348.91;;;16.43;100.00
6134;BME280;3098;42.678;23.364;2023-09-30T00:49:27;95349.00;;;16.46;100.00
6134;BME280;3098;42.678;23.364;2023-09-30T00:51:55;95350.44;;;16.44;100.00
6134;BME280;3098;42.678;23.364;2023-09-30T00:54:24;95339.50;;;16.49;100.00
6134;BME280;3098;42.678;23.364;2023-09-30T00:56:54;95336.75;;;16.57;100.00
6134;BME280;3098;42.678;23.364;2023-09-30T00:59:23;95307.53;;;16.40;100.00
6134;BME280;3098;42.678;23.364;2023-09-30T01:01:54;95314.00;;;16.51;100.00
6134;BME280;3098;42.678;23.364;2023-09-30T01:04:21;95334.31;;;16.64;100.00
6134;BME280;3098;42.678;23.364;2023-09-30T01:06:50;95328.72;;;16.45;100.00
6134;BME280;3098;42.678;23.364;2023-09-30T01:09:17;95307.16;;;16.42;100.00
6134;BME280;3098;42.678;23.364;2023-09-30T01:11:45;95338.09;;;16.51;100.00
6134;BME280;3098;42.678;23.364;2023-09-30T01:14:26;95334.28;;;16.52;100.00
6134;BME280;3098;42.678;23.364;2023-09-30T01:16:54;95329.72;;;16.53;100.00
6134;BME280;3098;42.678;23.364;2023-09-30T01:19:21;95341.75;;;16.47;100.00
6134;BME280;3098;42.678;23.364;2023-09-30T01:21:51;95302.16;;;16.28;100.00
6134;BME280;3098;42.678;23.364;2023-09-30T01:24:20;95310.28;;;16.44;100.00
6134;BME280;3098;42.678;23.364;2023-09-30T01:26:47;95105.38;;;15.01;100.00
6134;BME280;3098;42.678;23.364;2023-09-30T01:29:14;95182.53;;;15.47;100.00
6134;BME280;3098;42.678;23.364;2023-09-30T01:31:42;95023.84;;;14.17;100.00
6134;BME280;3098;42.678;23.364;2023-09-30T01:34:13;95352.44;;;16.23;100.00
6134;BME280;3098;42.678;23.364;2023-09-30T01:36:41;95340.47;;;16.08;100.00
6134;BME280;3098;42.678;23.364;2023-09-30T01:39:10;95338.94;;;16.19;100.00
6134;BME280;3098;42.678;23.364;2023-09-30T01:41:37;95332.25;;;16.25;100.00
6134;BME280;3098;42.678;23.364;2023-09-30T01:44:05;95221.88;;;15.59;100.00
6134;BME280;3098;42.678;23.364;2023-09-30T01:46:32;95197.19;;;15.29;100.00
6134;BME280;3098;42.678;23.364;2023-09-30T01:48:59;95333.81;;;16.26;100.00
6134;BME280;3098;42.678;23.364;2023-09-30T01:51:26;95341.47;;;16.16;100.00
6134;BME280;3098;42.678;23.364;2023-09-30T01:53:53;95340.03;;;16.18;100.00
6134;BME280;3098;42.678;23.364;2023-09-30T01:56:22;95230.66;;;15.47;100.00
6134;BME280;3098;42.678;23.364;2023-09-30T01:58:49;95334.19;;;15.92;100.00
6134;BME280;3098;42.678;23.364;2023-09-30T02:01:16;95328.38;;;15.90;100.00
6134;BME280;3098;42.678;23.364;2023-09-30T02:03:43;95291.44;;;15.71;100.00
6134;BME280;3098;42.678;23.364;2023-09-30T02:06:10;95327.94;;;15.88;100.00
6134;BME280;3098;42.678;23.364;2023-09-30T02:08:37;95187.47;;;14.92;100.00
6134;BME280;3098;42.678;23.364;2023-09-30T02:11:04;95277.38;;;15.41;100.00
6134;BME280;3098;42.678;23.364;2023-09-30T02:13:34;95305.22;;;15.61;100.00
6134;BME280;3098;42.678;23.364;2023-09-30T02:16:01;95318.84;;;15.68;100.00
6134;BME280;3098;42.678;23.364;2023-09-30T02:18:28;95328.97;;;15.63;100.00
6134;BME280;3098;42.678;23.364;2023-09-30T02:20:57;95332.88;;;15.65;100.00
6134;BME280;3098;42.678;23.364;2023-09-30T02:23:26;95312.84;;;15.30;100.00
6134;BME280;3098;42.678;23.364;2023-09-30T02:25:52;95326.09;;;15.47;100.00
6134;BME280;3098;42.678;23.364;2023-09-30T02:28:19;95328.16;;;15.41;100.00
6134;BME280;3098;42.678;23.364;2023-09-30T02:30:48;95332.88;;;15.24;100.00
6134;BME280;3098;42.678;23.364;2023-09-30T02:33:15;95243.72;;;14.46;100.00
6134;BME280;3098;42.678;23.364;2023-09-30T02:35:44;95327.50;;;14.82;100.00
6134;BME280;3098;42.678;23.364;2023-09-30T02:38:12;95326.47;;;14.75;100.00
6134;BME280;3098;42.678;23.364;2023-09-30T02:40:41;95320.81;;;14.47;100.00
6134;BME280;3098;42.678;23.364;2023-09-30T02:43:12;95303.25;;;14.37;100.00
6134;BME280;3098;42.678;23.364;2023-09-30T02:45:39;95328.09;;;14.59;100.00
6134;BME280;3098;42.678;23.364;2023-09-30T02:48:07;95242.06;;;13.95;100.00
6134;BME280;3098;42.678;23.364;2023-09-30T02:50:34;95327.22;;;14.46;100.00
6134;BME280;3098;42.678;23.364;2023-09-30T02:53:01;95335.34;;;14.58;100.00
6134;BME280;3098;42.678;23.364;2023-09-30T02:55:28;95090.78;;;12.99;100.00
6134;BME280;3098;42.678;23.364;2023-09-30T02:57:55;95262.34;;;14.16;100.00
6134;BME280;3098;42.678;23.364;2023-09-30T03:00:23;95324.53;;;14.55;100.00
6134;BME280;3098;42.678;23.364;2023-09-30T03:02:52;95311.25;;;14.37;100.00
6134;BME280;3098;42.678;23.364;2023-09-30T03:05:21;95330.84;;;14.50;100.00
6134;BME280;3098;42.678;23.364;2023-09-30T03:07:49;95335.94;;;14.64;100.00
6134;BME280;3098;42.678;23.364;2023-09-30T03:10:17;95332.47;;;14.63;100.00
6134;BME280;3098;42.678;23.364;2023-09-30T03:12:46;95297.91;;;14.37;100.00
6134;BME280;3098;42.678;23.364;2023-09-30T03:15:13;95332.34;;;14.60;100.00
6134;BME280;3098;42.678;23.364;2023-09-30T03:17:41;95338.47;;;14.60;100.00
6134;BME280;3098;42.678;23.364;2023-09-30T03:20:09;95339.69;;;14.63;100.00
6134;BME280;3098;42.678;23.364;2023-09-30T03:22:40;95318.59;;;14.49;100.00
6134;BME280;3098;42.678;23.364;2023-09-30T03:25:09;95311.47;;;14.53;100.00
6134;BME280;3098;42.678;23.364;2023-09-30T03:27:37;95334.22;;;14.59;100.00
6134;BME280;3098;42.678;23.364;2023-09-30T03:30:05;95318.25;;;14.51;100.00
6134;BME280;3098;42.678;23.364;2023-09-30T03:32:32;95329.22;;;14.58;100.00
6134;BME280;3098;42.678;23.364;2023-09-30T03:35:00;95330.31;;;14.57;100.00
6134;BME280;3098;42.678;23.364;2023-09-30T03:37:27;95204.63;;;13.74;100.00
6134;BME280;3098;42.678;23.364;2023-09-30T03:39:56;95297.91;;;14.29;100.00
6134;BME280;3098;42.678;23.364;2023-09-30T03:42:23;95327.97;;;14.55;100.00
6134;BME280;3098;42.678;23.364;2023-09-30T03:44:50;95325.44;;;14.59;100.00
6134;BME280;3098;42.678;23.364;2023-09-30T03:47:18;95299.00;;;14.36;100.00
6134;BME280;3098;42.678;23.364;2023-09-30T03:49:46;95326.41;;;14.54;100.00
6134;BME280;3098;42.678;23.364;2023-09-30T03:52:13;95256.75;;;14.09;100.00
6134;BME280;3098;42.678;23.364;2023-09-30T03:54:40;95332.75;;;14.41;100.00
6134;BME280;3098;42.678;23.364;2023-09-30T03:57:09;95263.06;;;13.96;100.00
6134;BME280;3098;42.678;23.364;2023-09-30T03:59:38;95326.03;;;14.35;100.00
6134;BME280;3098;42.678;23.364;2023-09-30T04:02:05;95085.97;;;12.75;100.00
6134;BME280;3098;42.678;23.364;2023-09-30T04:04:33;95310.69;;;14.15;100.00
6134;BME280;3098;42.678;23.364;2023-09-30T04:07:03;95331.84;;;14.20;100.00
6134;BME280;3098;42.678;23.364;2023-09-30T04:09:35;95301.97;;;13.97;100.00
6134;BME280;3098;42.678;23.364;2023-09-30T04:12:03;95331.09;;;14.11;100.00
6134;BME280;3098;42.678;23.364;2023-09-30T04:14:31;95337.75;;;13.96;100.00
6134;BME280;3098;42.678;23.364;2023-09-30T04:16:59;95349.19;;;13.88;100.00
6134;BME280;3098;42.678;23.364;2023-09-30T04:19:26;95332.16;;;13.63;100.00
6134;BME280;3098;42.678;23.364;2023-09-30T04:21:56;95315.72;;;13.44;100.00
6134;BME280;3098;42.678;23.364;2023-09-30T04:24:23;95306.50;;;13.24;100.00
6134;BME280;3098;42.678;23.364;2023-09-30T04:26:50;95327.94;;;13.45;100.00
6134;BME280;3098;42.678;23.364;2023-09-30T04:29:22;95326.06;;;13.37;100.00
6134;BME280;3098;42.678;23.364;2023-09-30T04:31:50;95288.47;;;13.21;100.00
6134;BME280;3098;42.678;23.364;2023-09-30T04:34:18;95347.22;;;13.59;100.00
6134;BME280;3098;42.678;23.364;2023-09-30T04:36:47;95307.28;;;13.34;100.00
6134;BME280;3098;42.678;23.364;2023-09-30T04:39:13;95337.81;;;13.45;100.00
6134;BME280;3098;42.678;23.364;2023-09-30T04:41:41;95334.84;;;13.46;100.00
6134;BME280;3098;42.678;23.364;2023-09-30T04:44:09;95359.59;;;13.64;100.00
6134;BME280;3098;42.678;23.364;2023-09-30T04:46:37;95331.38;;;13.46;100.00
6134;BME280;3098;42.678;23.364;2023-09-30T04:49:07;95358.50;;;13.65;100.00
6134;BME280;3098;42.678;23.364;2023-09-30T04:51:34;95363.50;;;13.75;100.00
6134;BME280;3098;42.678;23.364;2023-09-30T04:54:01;95368.84;;;13.75;100.00
6134;BME280;3098;42.678;23.364;2023-09-30T04:56:29;95366.59;;;13.86;100.00
6134;BME280;3098;42.678;23.364;2023-09-30T04:58:56;95370.38;;;14.02;100.00
6134;BME280;3098;42.678;23.364;2023-09-30T05:01:24;95373.00;;;14.10;100.00
6134;BME280;3098;42.678;23.364;2023-09-30T05:03:51;95340.41;;;14.05;100.00
6134;BME280;3098;42.678;23.364;2023-09-30T05:06:20;95349.09;;;14.22;100.00
6134;BME280;3098;42.678;23.364;2023-09-30T05:08:50;95366.97;;;14.39;100.00
6134;BME280;3098;42.678;23.364;2023-09-30T05:11:17;95371.78;;;14.54;100.00
6134;BME280;3098;42.678;23.364;2023-09-30T05:13:44;95373.34;;;14.55;100.00
6134;BME280;3098;42.678;23.364;2023-09-30T05:16:11;95376.63;;;14.61;100.00
6134;BME280;3098;42.678;23.364;2023-09-30T05:18:39;95378.09;;;14.79;100.00
6134;BME280;3098;42.678;23.364;2023-09-30T05:21:07;95351.59;;;14.74;100.00
6134;BME280;3098;42.678;23.364;2023-09-30T05:23:35;95365.72;;;15.04;100.00
6134;BME280;3098;42.678;23.364;2023-09-30T05:26:02;95369.16;;;15.04;100.00
6134;BME280;3098;42.678;23.364;2023-09-30T05:28:30;95355.16;;;15.07;100.00
6134;BME280;3098;42.678;23.364;2023-09-30T05:30:57;95377.41;;;15.40;100.00
6134;BME280;3098;42.678;23.364;2023-09-30T05:33:24;95362.13;;;15.49;100.00
6134;BME280;3098;42.678;23.364;2023-09-30T05:35:53;95369.19;;;16.32;100.00
6134;BME280;3098;42.678;23.364;2023-09-30T05:38:20;95379.09;;;17.52;100.00
6134;BME280;3098;42.678;23.364;2023-09-30T05:40:50;95356.19;;;18.10;96.95
6134;BME280;3098;42.678;23.364;2023-09-30T05:43:17;95389.31;;;19.24;89.38
6134;BME280;3098;42.678;23.364;2023-09-30T05:45:45;95375.03;;;20.54;80.99
6134;BME280;3098;42.678;23.364;2023-09-30T05:48:15;95317.19;;;20.97;76.09
6134;BME280;3098;42.678;23.364;2023-09-30T05:50:42;95356.69;;;21.64;71.53
6134;BME280;3098;42.678;23.364;2023-09-30T05:53:09;95394.91;;;22.66;69.56
6134;BME280;3098;42.678;23.364;2023-09-30T05:55:37;95399.16;;;23.66;64.60
6134;BME280;3098;42.678;23.364;2023-09-30T05:58:09;95391.44;;;23.71;63.41
6134;BME280;3098;42.678;23.364;2023-09-30T06:00:39;95396.19;;;23.92;60.98
6134;BME280;3098;42.678;23.364;2023-09-30T06:03:07;95381.97;;;24.16;61.06
6134;BME280;3098;42.678;23.364;2023-09-30T06:05:39;95401.84;;;24.70;58.51
6134;BME280;3098;42.678;23.364;2023-09-30T06:08:08;95403.06;;;25.43;55.07
6134;BME280;3098;42.678;23.364;2023-09-30T06:10:36;95411.63;;;24.88;57.07
6134;BME280;3098;42.678;23.364;2023-09-30T06:13:10;95370.50;;;25.25;55.79
6134;BME280;3098;42.678;23.364;2023-09-30T06:15:38;95408.44;;;25.78;53.39
6134;BME280;3098;42.678;23.364;2023-09-30T06:18:06;95411.59;;;25.38;55.42
6134;BME280;3098;42.678;23.364;2023-09-30T06:20:36;95368.19;;;25.09;55.15
6134;BME280;3098;42.678;23.364;2023-09-30T06:23:03;95423.06;;;26.26;52.34
6134;BME280;3098;42.678;23.364;2023-09-30T06:25:31;95389.31;;;26.03;51.48
6134;BME280;3098;42.678;23.364;2023-09-30T06:27:59;95365.47;;;24.88;54.16
6134;BME280;3098;42.678;23.364;2023-09-30T06:30:28;95367.34;;;25.44;52.25
6134;BME280;3098;42.678;23.364;2023-09-30T06:32:56;95398.88;;;26.43;50.73
6134;BME280;3098;42.678;23.364;2023-09-30T06:35:25;95428.09;;;27.01;48.53
6134;BME280;3098;42.678;23.364;2023-09-30T06:37:53;95402.78;;;27.04;47.69
6134;BME280;3098;42.678;23.364;2023-09-30T06:40:22;95315.78;;;25.34;47.70
6134;BME280;3098;42.678;23.364;2023-09-30T06:43:06;95257.94;;;25.40;48.28
6134;BME280;3098;42.678;23.364;2023-09-30T06:45:35;95199.50;;;25.11;47.51
6134;BME280;3098;42.678;23.364;2023-09-30T06:48:07;95315.25;;;25.88;46.25
6134;BME280;3098;42.678;23.364;2023-09-30T06:50:39;95208.16;;;25.75;45.12
6134;BME280;3098;42.678;23.364;2023-09-30T06:53:07;95437.50;;;27.40;44.50
6134;BME280;3098;42.678;23.364;2023-09-30T06:55:37;95398.94;;;26.28;46.66
6134;BME280;3098;42.678;23.364;2023-09-30T06:58:05;95427.34;;;27.48;44.90
6134;BME280;3098;42.678;23.364;2023-09-30T07:00:36;95395.75;;;27.91;42.56
6134;BME280;3098;42.678;23.364;2023-09-30T07:03:04;95426.38;;;28.40;41.57
6134;BME280;3098;42.678;23.364;2023-09-30T07:05:31;95435.94;;;28.55;39.74
6134;BME280;3098;42.678;23.364;2023-09-30T07:07:59;95401.56;;;27.93;41.95
6134;BME280;3098;42.678;23.364;2023-09-30T07:10:27;95439.66;;;28.68;39.89
6134;BME280;3098;42.678;23.364;2023-09-30T07:12:55;95439.59;;;28.41;40.23
6134;BME280;3098;42.678;23.364;2023-09-30T07:15:22;95442.22;;;28.52;40.21
6134;BME280;3098;42.678;23.364;2023-09-30T07:17:51;95419.44;;;28.62;39.16
6134;BME280;3098;42.678;23.364;2023-09-30T07:20:18;95415.97;;;28.88;38.15
6134;BME280;3098;42.678;23.364;2023-09-30T07:22:46;95436.28;;;28.57;38.27
6134;BME280;3098;42.678;23.364;2023-09-30T07:25:14;95304.72;;;27.82;38.09
6134;BME280;3098;42.678;23.364;2023-09-30T07:27:42;95439.56;;;28.75;38.29
6134;BME280;3098;42.678;23.364;2023-09-30T07:30:11;95416.78;;;27.54;39.65
6134;BME280;3098;42.678;23.364;2023-09-30T07:32:41;95445.03;;;28.75;37.35
6134;BME280;3098;42.678;23.364;2023-09-30T07:35:12;95436.81;;;28.15;38.53
6134;BME280;3098;42.678;23.364;2023-09-30T07:37:40;95425.25;;;27.63;38.87
6134;BME280;3098;42.678;23.364;2023-09-30T07:40:08;95402.47;;;28.21;38.38
6134;BME280;3098;42.678;23.364;2023-09-30T07:42:36;95335.56;;;28.39;37.73
6134;BME280;3098;42.678;23.364;2023-09-30T07:45:04;95433.00;;;28.39;39.02
6134;BME280;3098;42.678;23.364;2023-09-30T07:47:31;95277.31;;;27.62;38.19
6134;BME280;3098;42.678;23.364;2023-09-30T07:50:00;95333.25;;;28.38;37.38
6134;BME280;3098;42.678;23.364;2023-09-30T07:52:33;95436.41;;;29.03;36.83
6134;BME280;3098;42.678;23.364;2023-09-30T07:55:00;95419.59;;;29.08;36.40
6134;BME280;3098;42.678;23.364;2023-09-30T07:57:30;95442.63;;;30.00;36.23
6134;BME280;3098;42.678;23.364;2023-09-30T07:59:57;95412.47;;;30.24;34.24
6134;BME280;3098;42.678;23.364;2023-09-30T08:02:24;95419.69;;;29.01;36.18
6134;BME280;3098;42.678;23.364;2023-09-30T08:04:58;95419.28;;;30.55;33.80
6134;BME280;3098;42.678;23.364;2023-09-30T08:07:25;95266.97;;;29.34;34.54
6134;BME280;3098;42.678;23.364;2023-09-30T08:09:53;95371.13;;;29.59;33.87
6134;BME280;3098;42.678;23.364;2023-09-30T08:12:20;95448.00;;;29.61;33.22
6134;BME280;3098;42.678;23.364;2023-09-30T08:14:47;95276.06;;;29.86;32.85
6134;BME280;3098;42.678;23.364;2023-09-30T08:17:17;95382.38;;;28.65;34.48
6134;BME280;3098;42.678;23.364;2023-09-30T08:19:44;95453.97;;;30.42;32.73
6134;BME280;3098;42.678;23.364;2023-09-30T08:22:12;95439.91;;;31.63;31.23
6134;BME280;3098;42.678;23.364;2023-09-30T08:24:39;95364.88;;;29.58;32.81
6134;BME280;3098;42.678;23.364;2023-09-30T08:27:07;95430.13;;;29.80;32.93
6134;BME280;3098;42.678;23.364;2023-09-30T08:29:34;95434.91;;;31.26;31.66
6134;BME280;3098;42.678;23.364;2023-09-30T08:32:03;95416.94;;;32.02;30.46
6134;BME280;3098;42.678;23.364;2023-09-30T08:34:30;95387.25;;;32.67;28.90
6134;BME280;3098;42.678;23.364;2023-09-30T08:36:58;95420.34;;;32.89;27.90
6134;BME280;3098;42.678;23.364;2023-09-30T08:39:27;95258.09;;;32.92;26.59
6134;BME280;3098;42.678;23.364;2023-09-30T08:41:55;95407.72;;;34.85;25.83
6134;BME280;3098;42.678;23.364;2023-09-30T08:44:25;95435.72;;;33.96;27.27
6134;BME280;3098;42.678;23.364;2023-09-30T08:46:54;95444.09;;;34.27;25.92
6134;BME280;3098;42.678;23.364;2023-09-30T08:49:23;95441.66;;;34.29;25.42
6134;BME280;3098;42.678;23.364;2023-09-30T08:51:55;95412.59;;;33.94;25.22
6134;BME280;3098;42.678;23.364;2023-09-30T08:54:25;95422.56;;;34.56;25.15
6134;BME280;3098;42.678;23.364;2023-09-30T08:56:52;95409.56;;;33.79;24.89
6134;BME280;3098;42.678;23.364;2023-09-30T08:59:21;95428.66;;;33.48;25.92
6134;BME280;3098;42.678;23.364;2023-09-30T09:01:50;95430.84;;;32.65;26.72
6134;BME280;3098;42.678;23.364;2023-09-30T09:04:19;95415.66;;;32.07;27.00
6134;BME280;3098;42.678;23.364;2023-09-30T09:06:46;95392.09;;;32.63;25.39
6134;BME280;3098;42.678;23.364;2023-09-30T09:09:14;95363.28;;;33.18;24.80
6134;BME280;3098;42.678;23.364;2023-09-30T09:11:42;95376.22;;;30.91;26.12
6134;BME280;3098;42.678;23.364;2023-09-30T09:14:10;95310.13;;;31.05;25.77
6134;BME280;3098;42.678;23.364;2023-09-30T09:16:52;95422.19;;;28.32;28.99
6134;BME280;3098;42.678;23.364;2023-09-30T09:19:20;95380.34;;;28.42;29.39
6134;BME280;3098;42.678;23.364;2023-09-30T09:21:55;95406.50;;;30.09;28.50
6134;BME280;3098;42.678;23.364;2023-09-30T09:24:33;95406.13;;;30.66;27.83
6134;BME280;3098;42.678;23.364;2023-09-30T09:27:08;95401.75;;;30.13;28.07
6134;BME280;3098;42.678;23.364;2023-09-30T09:29:38;95385.78;;;29.69;28.20
6134;BME280;3098;42.678;23.364;2023-09-30T09:32:11;95354.72;;;29.59;28.18
6134;BME280;3098;42.678;23.364;2023-09-30T09:34:41;95375.81;;;31.41;27.05
6134;BME280;3098;42.678;23.364;2023-09-30T09:37:15;95351.38;;;32.46;25.68
6134;BME280;3098;42.678;23.364;2023-09-30T09:39:50;95395.31;;;31.75;25.74
6134;BME280;3098;42.678;23.364;2023-09-30T09:42:25;95249.13;;;31.05;25.51
6134;BME280;3098;42.678;23.364;2023-09-30T09:44:54;95371.25;;;29.72;27.11
6134;BME280;3098;42.678;23.364;2023-09-30T09:47:24;95402.09;;;30.35;26.98
6134;BME280;3098;42.678;23.364;2023-09-30T09:49:52;95389.75;;;30.07;26.75
6134;BME280;3098;42.678;23.364;2023-09-30T09:52:20;95361.63;;;28.97;28.34
6134;BME280;3098;42.678;23.364;2023-09-30T09:54:48;95381.63;;;29.84;28.52
6134;BME280;3098;42.678;23.364;2023-09-30T09:57:17;95386.53;;;29.92;27.92
6134;BME280;3098;42.678;23.364;2023-09-30T09:59:46;95390.94;;;30.26;27.54
6134;BME280;3098;42.678;23.364;2023-09-30T10:02:15;95378.91;;;28.34;29.16
6134;BME280;3098;42.678;23.364;2023-09-30T10:04:45;95288.19;;;27.66;28.96
6134;BME280;3098;42.678;23.364;2023-09-30T10:07:16;95366.63;;;27.03;29.97
6134;BME280;3098;42.678;23.364;2023-09-30T10:09:47;95359.59;;;27.06;30.05
6134;BME280;3098;42.678;23.364;2023-09-30T10:12:16;95306.84;;;26.89;31.04
6134;BME280;3098;42.678;23.364;2023-09-30T10:14:44;95011.56;;;25.99;29.71
6134;BME280;3098;42.678;23.364;2023-09-30T10:17:12;95352.50;;;28.54;30.59
6134;BME280;3098;42.678;23.364;2023-09-30T10:20:07;95377.19;;;29.00;29.26
6134;BME280;3098;42.678;23.364;2023-09-30T10:22:35;95351.16;;;28.92;27.96
6134;BME280;3098;42.678;23.364;2023-09-30T10:25:34;95248.56;;;26.87;28.44
6134;BME280;3098;42.678;23.364;2023-09-30T10:28:38;95334.50;;;27.69;28.77
6134;BME280;3098;42.678;23.364;2023-09-30T10:31:14;95036.75;;;26.44;27.94
6134;BME280;3098;42.678;23.364;2023-09-30T10:34:18;95345.97;;;27.50;28.45
6134;BME280;3098;42.678;23.364;2023-09-30T10:36:48;95304.97;;;27.64;28.17
6134;BME280;3098;42.678;23.364;2023-09-30T10:42:48;95340.94;;;27.04;29.29
6134;BME280;3098;42.678;23.364;2023-09-30T10:45:42;95333.59;;;27.01;29.17
6134;BME280;3098;42.678;23.364;2023-09-30T10:48:36;95335.53;;;27.01;28.97
6134;BME280;3098;42.678;23.364;2023-09-30T10:51:13;95291.09;;;27.11;28.93
6134;BME280;3098;42.678;23.364;2023-09-30T10:53:44;95336.09;;;26.74;28.93
6134;BME280;3098;42.678;23.364;2023-09-30T10:56:13;95240.81;;;26.34;28.72
6134;BME280;3098;42.678;23.364;2023-09-30T10:58:41;95291.00;;;26.22;29.36
6134;BME280;3098;42.678;23.364;2023-09-30T11:01:09;95325.09;;;26.96;29.19
6134;BME280;3098;42.678;23.364;2023-09-30T11:03:36;95322.25;;;27.06;29.63
6134;BME280;3098;42.678;23.364;2023-09-30T11:06:03;95320.88;;;28.00;28.51
6134;BME280;3098;42.678;23.364;2023-09-30T11:08:32;95299.06;;;28.00;27.84
6134;BME280;3098;42.678;23.364;2023-09-30T11:11:01;95253.06;;;26.56;28.60
6134;BME280;3098;42.678;23.364;2023-09-30T11:13:32;95254.09;;;26.72;29.01
6134;BME280;3098;42.678;23.364;2023-09-30T11:16:00;95294.97;;;26.65;28.94
6134;BME280;3098;42.678;23.364;2023-09-30T11:18:29;95188.34;;;24.74;30.19
6134;BME280;3098;42.678;23.364;2023-09-30T11:21:07;95314.97;;;25.61;30.96
6134;BME280;3098;42.678;23.364;2023-09-30T11:23:37;95311.28;;;26.03;29.89
6134;BME280;3098;42.678;23.364;2023-09-30T11:26:06;95317.13;;;26.02;30.43
6134;BME280;3098;42.678;23.364;2023-09-30T11:28:38;95155.84;;;24.42;30.86
6134;BME280;3098;42.678;23.364;2023-09-30T11:31:09;95311.94;;;25.17;31.13
6134;BME280;3098;42.678;23.364;2023-09-30T11:33:50;95258.78;;;25.34;30.68
6134;BME280;3098;42.678;23.364;2023-09-30T11:36:18;95309.53;;;25.54;31.47
6134;BME280;3098;42.678;23.364;2023-09-30T11:38:47;95298.72;;;25.51;30.93
6134;BME280;3098;42.678;23.364;2023-09-30T11:41:17;95225.97;;;24.26;32.08
6134;BME280;3098;42.678;23.364;2023-09-30T11:44:02;95310.41;;;25.16;32.08
6134;BME280;3098;42.678;23.364;2023-09-30T11:46:31;95262.34;;;24.71;32.62
6134;BME280;3098;42.678;23.364;2023-09-30T11:49:00;95241.66;;;25.40;31.82
6134;BME280;3098;42.678;23.364;2023-09-30T11:51:28;95091.56;;;25.36;31.10
6134;BME280;3098;42.678;23.364;2023-09-30T11:53:57;95284.34;;;25.54;32.11
6134;BME280;3098;42.678;23.364;2023-09-30T11:56:27;95288.59;;;25.55;32.44
6134;BME280;3098;42.678;23.364;2023-09-30T11:58:55;95280.28;;;25.94;32.66
6134;BME280;3098;42.678;23.364;2023-09-30T12:01:22;95285.00;;;25.79;32.29
6134;BME280;3098;42.678;23.364;2023-09-30T12:03:51;95276.41;;;25.88;32.19
6134;BME280;3098;42.678;23.364;2023-09-30T12:06:20;95277.72;;;25.55;32.17
6134;BME280;3098;42.678;23.364;2023-09-30T12:08:48;95209.84;;;25.37;32.51
6134;BME280;3098;42.678;23.364;2023-09-30T12:11:17;95254.06;;;25.55;31.89
6134;BME280;3098;42.678;23.364;2023-09-30T12:13:46;95267.28;;;25.32;32.14
6134;BME280;3098;42.678;23.364;2023-09-30T12:16:14;95249.16;;;25.04;33.19
6134;BME280;3098;42.678;23.364;2023-09-30T12:18:42;95260.81;;;24.77;33.19
6134;BME280;3098;42.678;23.364;2023-09-30T12:21:10;95265.47;;;24.44;33.62
6134;BME280;3098;42.678;23.364;2023-09-30T12:23:39;95243.38;;;24.21;34.15
6134;BME280;3098;42.678;23.364;2023-09-30T12:26:07;95176.34;;;23.93;33.72
6134;BME280;3098;42.678;23.364;2023-09-30T12:28:34;95140.72;;;23.98;33.50
6134;BME280;3098;42.678;23.364;2023-09-30T12:31:03;95225.97;;;24.57;33.94
6134;BME280;3098;42.678;23.364;2023-09-30T12:33:30;95251.91;;;24.66;33.79
6134;BME280;3098;42.678;23.364;2023-09-30T12:35:58;95250.38;;;24.57;33.30
6134;BME280;3098;42.678;23.364;2023-09-30T12:38:25;95255.00;;;24.46;33.65
6134;BME280;3098;42.678;23.364;2023-09-30T12:40:54;95246.84;;;24.36;33.68
6134;BME280;3098;42.678;23.364;2023-09-30T12:43:21;95242.63;;;24.45;33.92
6134;BME280;3098;42.678;23.364;2023-09-30T12:45:49;95180.97;;;23.93;34.08
6134;BME280;3098;42.678;23.364;2023-09-30T12:48:17;95210.06;;;24.42;33.96
6134;BME280;3098;42.678;23.364;2023-09-30T12:50:44;95208.50;;;24.58;33.88
6134;BME280;3098;42.678;23.364;2023-09-30T12:53:12;95235.25;;;24.32;33.57
6134;BME280;3098;42.678;23.364;2023-09-30T12:55:39;95231.38;;;24.40;33.84
6134;BME280;3098;42.678;23.364;2023-09-30T12:58:07;95224.41;;;24.42;34.08
6134;BME280;3098;42.678;23.364;2023-09-30T13:00:37;95191.09;;;24.35;34.12
6134;BME280;3098;42.678;23.364;2023-09-30T13:03:04;95225.56;;;24.80;34.18
6134;BME280;3098;42.678;23.364;2023-09-30T13:05:35;95220.13;;;24.77;33.16
6134;BME280;3098;42.678;23.364;2023-09-30T13:08:03;95229.81;;;24.85;33.37
6134;BME280;3098;42.678;23.364;2023-09-30T13:10:30;95172.09;;;24.59;33.03
6134;BME280;3098;42.678;23.364;2023-09-30T13:12:57;95215.50;;;24.45;33.72
6134;BME280;3098;42.678;23.364;2023-09-30T13:15:24;95218.19;;;24.24;33.70
6134;BME280;3098;42.678;23.364;2023-09-30T13:17:52;95219.34;;;24.44;34.29
6134;BME280;3098;42.678;23.364;2023-09-30T13:20:19;95164.38;;;24.33;34.08